sensor_id;sensor_type;location;lat;lon;timestamp;P1;durP1;ratioP1;P2;durP2;ratioP2
26824;SDS011;14402;48.178;11.566;2024-03-02T00:00:21;5.7;;;5.2;;
26824;SDS011;14402;48.178;11.566;2024-03-02T00:00:51;5.7;;;5.2;;
26824;SDS011;14402;48.178;11.566;2024-03-02T00:01:20;6.4;;;5.9;;
26824;SDS011;14402;48.178;11.566;2024-03-02T00:01:50;7.2;;;6.6;;
26824;SDS011;14402;48.178;11.566;2024-03-02T00:02:21;7.2;;;6.6;;
26824;SDS011;14402;48.178;11.566;2024-03-02T00:02:51;7.2;;;6.6;;
26824;SDS011;14402;48.178;11.566;2024-03-02T00:03:21;10.1;;;9.1;;
26824;SDS011;14402;48.178;11.566;2024-03-02T00:03:51;13.0;;;11.5;;
26824;SDS011;14402;48.178;11.566;2024-03-02T00:04:21;13.0;;;11.5;;
26824;SDS011;14402;48.178;11.566;2024-03-02T00:04:51;13.0;;;11.5;;
26824;SDS011;14402;48.178;11.566;2024-03-02T00:05:21;9.6;;;8.6;;
26824;SDS011;14402;48.178;11.566;2024-03-02T00:05:51;6.2;;;5.7;;
26824;SDS011;14402;48.178;11.566;2024-03-02T00:06:21;6.2;;;5.7;;
26824;SDS011;14402;48.178;11.566;2024-03-02T00:06:52;6.2;;;5.7;;
26824;SDS011;14402;48.178;11.566;2024-03-02T00:07:22;8.1;;;7.3;;
26824;SDS011;14402;48.178;11.566;2024-03-02T00:07:52;10.0;;;9.0;;
26824;SDS011;14402;48.178;11.566;2024-03-02T00:08:23;10.0;;;9.0;;
26824;SDS011;14402;48.178;11.566;2024-03-02T00:08:55;10.0;;;9.0;;
26824;SDS011;14402;48.178;11.566;2024-03-02T00:09:22;9.6;;;8.6;;
26824;SDS011;14402;48.178;11.566;2024-03-02T00:09:52;9.1;;;8.3;;
26824;SDS011;14402;48.178;11.566;2024-03-02T00:10:22;9.1;;;8.3;;
26824;SDS011;14402;48.178;11.566;2024-03-02T00:10:53;9.1;;;8.3;;
26824;SDS011;14402;48.178;11.566;2024-03-02T00:11:22;9.2;;;8.4;;
26824;SDS011;14402;48.178;11.566;2024-03-02T00:11:52;9.3;;;8.5;;
26824;SDS011;14402;48.178;11.566;2024-03-02T00:12:22;9.3;;;8.5;;
26824;SDS011;14402;48.178;11.566;2024-03-02T00:12:52;9.3;;;8.5;;
26824;SDS011;14402;48.178;11.566;2024-03-02T00:13:22;8.1;;;7.3;;
26824;SDS011;14402;48.178;11.566;2024-03-02T00:13:52;6.8;;;6.2;;
26824;SDS011;14402;48.178;11.566;2024-03-02T00:14:22;6.8;;;6.2;;
26824;SDS011;14402;48.178;11.566;2024-03-02T00:14:52;6.8;;;6.2;;
26824;SDS011;14402;48.178;11.566;2024-03-02T00:15:30;7.1;;;6.4;;
26824;SDS011;14402;48.178;11.566;2024-03-02T00:15:53;7.4;;;6.6;;
26824;SDS011;14402;48.178;11.566;2024-03-02T00:16:22;7.4;;;6.6;;
26824;SDS011;14402;48.178;11.566;2024-03-02T00:16:53;7.4;;;6.6;;
26824;SDS011;14402;48.178;11.566;2024-03-02T00:17:24;8.6;;;7.6;;
26824;SDS011;14402;48.178;11.566;2024-03-02T00:17:53;9.7;;;8.7;;
26824;SDS011;14402;48.178;11.566;2024-03-02T00:18:24;9.7;;;8.7;;
26824;SDS011;14402;48.178;11.566;2024-03-02T00:18:53;9.7;;;8.7;;
26824;SDS011;14402;48.178;11.566;2024-03-02T00:19:23;11.9;;;10.7;;
26824;SDS011;14402;48.178;11.566;2024-03-02T00:19:53;14.0;;;12.7;;
26824;SDS011;14402;48.178;11.566;2024-03-02T00:20:23;14.0;;;12.7;;
26824;SDS011;14402;48.178;11.566;2024-03-02T00:20:53;14.0;;;12.7;;
26824;SDS011;14402;48.178;11.566;2024-03-02T00:21:24;12.1;;;10.9;;
26824;SDS011;14402;48.178;11.566;2024-03-02T00:21:53;10.1;;;9.1;;
26824;SDS011;14402;48.178;11.566;2024-03-02T00:22:23;10.1;;;9.1;;
26824;SDS011;14402;48.178;11.566;2024-03-02T00:22:53;10.1;;;9.1;;
26824;SDS011;14402;48.178;11.566;2024-03-02T00:23:24;9.1;;;8.2;;
26824;SDS011;14402;48.178;11.566;2024-03-02T00:23:53;8.1;;;7.3;;
26824;SDS011;14402;48.178;11.566;2024-03-02T00:24:25;8.1;;;7.3;;
26824;SDS011;14402;48.178;11.566;2024-03-02T00:24:53;8.1;;;7.3;;
26824;SDS011;14402;48.178;11.566;2024-03-02T00:25:23;8.6;;;7.8;;
26824;SDS011;14402;48.178;11.566;2024-03-02T00:25:54;9.1;;;8.2;;
26824;SDS011;14402;48.178;11.566;2024-03-02T00:26:23;9.1;;;8.2;;
26824;SDS011;14402;48.178;11.566;2024-03-02T00:26:53;9.1;;;8.2;;
26824;SDS011;14402;48.178;11.566;2024-03-02T00:27:23;9.1;;;8.2;;
26824;SDS011;14402;48.178;11.566;2024-03-02T00:27:54;9.1;;;8.3;;
26824;SDS011;14402;48.178;11.566;2024-03-02T00:28:24;9.1;;;8.3;;
26824;SDS011;14402;48.178;11.566;2024-03-02T00:28:54;9.1;;;8.3;;
26824;SDS011;14402;48.178;11.566;2024-03-02T00:29:24;7.9;;;7.2;;
26824;SDS011;14402;48.178;11.566;2024-03-02T00:29:54;6.7;;;6.1;;
26824;SDS011;14402;48.178;11.566;2024-03-02T00:30:34;6.7;;;6.1;;
26824;SDS011;14402;48.178;11.566;2024-03-02T00:30:55;6.7;;;6.1;;
26824;SDS011;14402;48.178;11.566;2024-03-02T00:31:24;6.7;;;6.1;;
26824;SDS011;14402;48.178;11.566;2024-03-02T00:31:54;6.7;;;6.1;;
26824;SDS011;14402;48.178;11.566;2024-03-02T00:32:24;6.7;;;6.1;;
26824;SDS011;14402;48.178;11.566;2024-03-02T00:32:54;6.7;;;6.1;;
26824;SDS011;14402;48.178;11.566;2024-03-02T00:33:26;6.6;;;6.0;;
26824;SDS011;14402;48.178;11.566;2024-03-02T00:33:54;6.5;;;5.9;;
26824;SDS011;14402;48.178;11.566;2024-03-02T00:34:24;6.5;;;5.9;;
26824;SDS011;14402;48.178;11.566;2024-03-02T00:34:54;6.5;;;5.9;;
26824;SDS011;14402;48.178;11.566;2024-03-02T00:35:24;7.2;;;6.6;;
26824;SDS011;14402;48.178;11.566;2024-03-02T00:35:54;8.0;;;7.2;;
26824;SDS011;14402;48.178;11.566;2024-03-02T00:36:25;8.0;;;7.2;;
26824;SDS011;14402;48.178;11.566;2024-03-02T00:36:56;8.0;;;7.2;;
26824;SDS011;14402;48.178;11.566;2024-03-02T00:37:24;8.7;;;7.8;;
26824;SDS011;14402;48.178;11.566;2024-03-02T00:37:55;9.4;;;8.5;;
26824;SDS011;14402;48.178;11.566;2024-03-02T00:38:25;9.4;;;8.5;;
26824;SDS011;14402;48.178;11.566;2024-03-02T00:38:55;9.4;;;8.5;;
26824;SDS011;14402;48.178;11.566;2024-03-02T00:39:25;8.6;;;7.8;;
26824;SDS011;14402;48.178;11.566;2024-03-02T00:39:55;7.8;;;7.1;;
26824;SDS011;14402;48.178;11.566;2024-03-02T00:40:26;7.8;;;7.1;;
26824;SDS011;14402;48.178;11.566;2024-03-02T00:40:55;7.8;;;7.1;;
26824;SDS011;14402;48.178;11.566;2024-03-02T00:41:26;9.4;;;8.6;;
26824;SDS011;14402;48.178;11.566;2024-03-02T00:41:55;11.0;;;10.0;;
26824;SDS011;14402;48.178;11.566;2024-03-02T00:42:25;11.0;;;10.0;;
26824;SDS011;14402;48.178;11.566;2024-03-02T00:42:55;11.0;;;10.0;;
26824;SDS011;14402;48.178;11.566;2024-03-02T00:43:39;8.4;;;7.6;;
26824;SDS011;14402;48.178;11.566;2024-03-02T00:43:57;5.7;;;5.2;;
26824;SDS011;14402;48.178;11.566;2024-03-02T00:44:25;5.7;;;5.2;;
26824;SDS011;14402;48.178;11.566;2024-03-02T00:44:55;5.7;;;5.2;;
26824;SDS011;14402;48.178;11.566;2024-03-02T00:45:25;5.8;;;5.2;;
26824;SDS011;14402;48.178;11.566;2024-03-02T00:45:55;5.8;;;5.3;;
26824;SDS011;14402;48.178;11.566;2024-03-02T00:46:27;5.8;;;5.3;;
26824;SDS011;14402;48.178;11.566;2024-03-02T00:46:55;5.8;;;5.3;;
26824;SDS011;14402;48.178;11.566;2024-03-02T00:47:26;6.4;;;5.4;;
26824;SDS011;14402;48.178;11.566;2024-03-02T00:47:56;7.1;;;5.6;;
26824;SDS011;14402;48.178;11.566;2024-03-02T00:48:26;7.1;;;5.6;;
26824;SDS011;14402;48.178;11.566;2024-03-02T00:48:56;7.1;;;5.6;;
26824;SDS011;14402;48.178;11.566;2024-03-02T00:49:26;6.3;;;5.3;;
26824;SDS011;14402;48.178;11.566;2024-03-02T00:49:56;5.5;;;5.0;;
26824;SDS011;14402;48.178;11.566;2024-03-02T00:50:26;5.5;;;5.0;;
26824;SDS011;14402;48.178;11.566;2024-03-02T00:50:56;5.5;;;5.0;;
26824;SDS011;14402;48.178;11.566;2024-03-02T00:51:27;5.7;;;5.2;;
26824;SDS011;14402;48.178;11.566;2024-03-02T00:51:56;5.9;;;5.4;;
26824;SDS011;14402;48.178;11.566;2024-03-02T00:52:26;5.9;;;5.4;;
26824;SDS011;14402;48.178;11.566;2024-03-02T00:52:56;5.9;;;5.4;;
26824;SDS011;14402;48.178;11.566;2024-03-02T00:53:26;5.9;;;5.4;;
26824;SDS011;14402;48.178;11.566;2024-03-02T00:53:58;5.9;;;5.3;;
26824;SDS011;14402;48.178;11.566;2024-03-02T00:54:26;5.9;;;5.3;;
26824;SDS011;14402;48.178;11.566;2024-03-02T00:54:57;5.9;;;5.3;;
26824;SDS011;14402;48.178;11.566;2024-03-02T00:55:26;6.1;;;5.4;;
26824;SDS011;14402;48.178;11.566;2024-03-02T00:55:56;6.2;;;5.6;;
26824;SDS011;14402;48.178;11.566;2024-03-02T00:56:26;6.2;;;5.6;;
26824;SDS011;14402;48.178;11.566;2024-03-02T00:56:56;6.2;;;5.6;;
26824;SDS011;14402;48.178;11.566;2024-03-02T00:57:27;6.1;;;5.6;;
26824;SDS011;14402;48.178;11.566;2024-03-02T00:57:57;6.1;;;5.5;;
26824;SDS011;14402;48.178;11.566;2024-03-02T00:58:27;6.1;;;5.5;;
26824;SDS011;14402;48.178;11.566;2024-03-02T00:58:57;6.1;;;5.5;;
26824;SDS011;14402;48.178;11.566;2024-03-02T00:59:27;5.8;;;5.3;;
26824;SDS011;14402;48.178;11.566;2024-03-02T00:59:57;5.6;;;5.1;;
26824;SDS011;14402;48.178;11.566;2024-03-02T01:00:27;5.6;;;5.1;;
26824;SDS011;14402;48.178;11.566;2024-03-02T01:00:57;5.6;;;5.1;;
26824;SDS011;14402;48.178;11.566;2024-03-02T01:01:27;5.8;;;5.2;;
26824;SDS011;14402;48.178;11.566;2024-03-02T01:01:57;6.1;;;5.4;;
26824;SDS011;14402;48.178;11.566;2024-03-02T01:02:27;6.1;;;5.4;;
26824;SDS011;14402;48.178;11.566;2024-03-02T01:02:57;6.1;;;5.4;;
26824;SDS011;14402;48.178;11.566;2024-03-02T01:03:27;6.1;;;5.3;;
26824;SDS011;14402;48.178;11.566;2024-03-02T01:03:57;6.0;;;5.2;;
26824;SDS011;14402;48.178;11.566;2024-03-02T01:04:27;6.0;;;5.2;;
26824;SDS011;14402;48.178;11.566;2024-03-02T01:04:57;6.0;;;5.2;;
26824;SDS011;14402;48.178;11.566;2024-03-02T01:05:27;5.9;;;5.2;;
26824;SDS011;14402;48.178;11.566;2024-03-02T01:05:57;5.9;;;5.2;;
26824;SDS011;14402;48.178;11.566;2024-03-02T01:06:27;5.9;;;5.2;;
26824;SDS011;14402;48.178;11.566;2024-03-02T01:06:58;5.9;;;5.2;;
26824;SDS011;14402;48.178;11.566;2024-03-02T01:07:28;5.8;;;5.2;;
26824;SDS011;14402;48.178;11.566;2024-03-02T01:07:58;5.7;;;5.2;;
26824;SDS011;14402;48.178;11.566;2024-03-02T01:08:28;5.7;;;5.2;;
26824;SDS011;14402;48.178;11.566;2024-03-02T01:08:58;5.7;;;5.2;;
26824;SDS011;14402;48.178;11.566;2024-03-02T01:09:28;6.0;;;5.4;;
26824;SDS011;14402;48.178;11.566;2024-03-02T01:09:58;6.3;;;5.7;;
26824;SDS011;14402;48.178;11.566;2024-03-02T01:10:28;6.3;;;5.7;;
26824;SDS011;14402;48.178;11.566;2024-03-02T01:10:58;6.3;;;5.7;;
26824;SDS011;14402;48.178;11.566;2024-03-02T01:11:29;6.4;;;5.8;;
26824;SDS011;14402;48.178;11.566;2024-03-02T01:11:58;6.5;;;5.9;;
26824;SDS011;14402;48.178;11.566;2024-03-02T01:12:28;6.5;;;5.9;;
26824;SDS011;14402;48.178;11.566;2024-03-02T01:12:58;6.5;;;5.9;;
26824;SDS011;14402;48.178;11.566;2024-03-02T01:13:28;6.3;;;5.7;;
26824;SDS011;14402;48.178;11.566;2024-03-02T01:13:58;6.1;;;5.5;;
26824;SDS011;14402;48.178;11.566;2024-03-02T01:14:28;6.1;;;5.5;;
26824;SDS011;14402;48.178;11.566;2024-03-02T01:14:59;6.1;;;5.5;;
26824;SDS011;14402;48.178;11.566;2024-03-02T01:15:28;5.9;;;5.4;;
26824;SDS011;14402;48.178;11.566;2024-03-02T01:15:59;5.8;;;5.3;;
26824;SDS011;14402;48.178;11.566;2024-03-02T01:16:29;5.8;;;5.3;;
26824;SDS011;14402;48.178;11.566;2024-03-02T01:16:59;5.8;;;5.3;;
26824;SDS011;14402;48.178;11.566;2024-03-02T01:17:29;6.0;;;5.4;;
26824;SDS011;14402;48.178;11.566;2024-03-02T01:17:59;6.2;;;5.6;;
26824;SDS011;14402;48.178;11.566;2024-03-02T01:18:29;6.2;;;5.6;;
26824;SDS011;14402;48.178;11.566;2024-03-02T01:18:59;6.2;;;5.6;;
26824;SDS011;14402;48.178;11.566;2024-03-02T01:19:29;6.1;;;5.5;;
26824;SDS011;14402;48.178;11.566;2024-03-02T01:19:59;5.9;;;5.4;;
26824;SDS011;14402;48.178;11.566;2024-03-02T01:20:29;5.9;;;5.4;;
26824;SDS011;14402;48.178;11.566;2024-03-02T01:20:59;5.9;;;5.4;;
26824;SDS011;14402;48.178;11.566;2024-03-02T01:21:29;5.8;;;5.2;;
26824;SDS011;14402;48.178;11.566;2024-03-02T01:21:59;5.6;;;5.1;;
26824;SDS011;14402;48.178;11.566;2024-03-02T01:22:29;5.6;;;5.1;;
26824;SDS011;14402;48.178;11.566;2024-03-02T01:23:00;5.6;;;5.1;;
26824;SDS011;14402;48.178;11.566;2024-03-02T01:23:30;5.9;;;5.4;;
26824;SDS011;14402;48.178;11.566;2024-03-02T01:24:00;6.3;;;5.7;;
26824;SDS011;14402;48.178;11.566;2024-03-02T01:24:30;6.3;;;5.7;;
26824;SDS011;14402;48.178;11.566;2024-03-02T01:25:00;6.3;;;5.7;;
26824;SDS011;14402;48.178;11.566;2024-03-02T01:25:30;6.2;;;5.6;;
26824;SDS011;14402;48.178;11.566;2024-03-02T01:26:00;6.1;;;5.5;;
26824;SDS011;14402;48.178;11.566;2024-03-02T01:26:30;6.1;;;5.5;;
26824;SDS011;14402;48.178;11.566;2024-03-02T01:27:00;6.1;;;5.5;;
26824;SDS011;14402;48.178;11.566;2024-03-02T01:27:30;6.1;;;5.6;;
26824;SDS011;14402;48.178;11.566;2024-03-02T01:28:00;6.2;;;5.6;;
26824;SDS011;14402;48.178;11.566;2024-03-02T01:28:30;6.2;;;5.6;;
26824;SDS011;14402;48.178;11.566;2024-03-02T01:29:00;6.2;;;5.6;;
26824;SDS011;14402;48.178;11.566;2024-03-02T01:29:31;6.2;;;5.6;;
26824;SDS011;14402;48.178;11.566;2024-03-02T01:30:01;6.2;;;5.6;;
26824;SDS011;14402;48.178;11.566;2024-03-02T01:30:31;6.2;;;5.6;;
26824;SDS011;14402;48.178;11.566;2024-03-02T01:31:01;6.2;;;5.6;;
26824;SDS011;14402;48.178;11.566;2024-03-02T01:31:31;6.1;;;5.6;;
26824;SDS011;14402;48.178;11.566;2024-03-02T01:32:01;6.1;;;5.5;;
26824;SDS011;14402;48.178;11.566;2024-03-02T01:32:31;6.1;;;5.5;;
26824;SDS011;14402;48.178;11.566;2024-03-02T01:33:01;6.1;;;5.5;;
26824;SDS011;14402;48.178;11.566;2024-03-02T01:33:31;5.8;;;5.3;;
26824;SDS011;14402;48.178;11.566;2024-03-02T01:34:01;5.6;;;5.1;;
26824;SDS011;14402;48.178;11.566;2024-03-02T01:34:31;5.6;;;5.1;;
26824;SDS011;14402;48.178;11.566;2024-03-02T01:35:01;5.6;;;5.1;;
26824;SDS011;14402;48.178;11.566;2024-03-02T01:35:31;5.8;;;5.3;;
26824;SDS011;14402;48.178;11.566;2024-03-02T01:36:02;6.0;;;5.5;;
26824;SDS011;14402;48.178;11.566;2024-03-02T01:36:32;6.0;;;5.5;;
26824;SDS011;14402;48.178;11.566;2024-03-02T01:37:02;6.0;;;5.5;;
26824;SDS011;14402;48.178;11.566;2024-03-02T01:37:32;6.1;;;5.6;;
26824;SDS011;14402;48.178;11.566;2024-03-02T01:38:02;6.2;;;5.6;;
26824;SDS011;14402;48.178;11.566;2024-03-02T01:38:32;6.2;;;5.6;;
26824;SDS011;14402;48.178;11.566;2024-03-02T01:39:02;6.2;;;5.6;;
26824;SDS011;14402;48.178;11.566;2024-03-02T01:39:32;6.2;;;5.6;;
26824;SDS011;14402;48.178;11.566;2024-03-02T01:40:02;6.2;;;5.6;;
26824;SDS011;14402;48.178;11.566;2024-03-02T01:40:32;6.2;;;5.6;;
26824;SDS011;14402;48.178;11.566;2024-03-02T01:41:02;6.2;;;5.6;;
26824;SDS011;14402;48.178;11.566;2024-03-02T01:41:32;6.6;;;5.9;;
26824;SDS011;14402;48.178;11.566;2024-03-02T01:42:02;6.9;;;6.3;;
26824;SDS011;14402;48.178;11.566;2024-03-02T01:42:32;6.9;;;6.3;;
26824;SDS011;14402;48.178;11.566;2024-03-02T01:43:03;6.9;;;6.3;;
26824;SDS011;14402;48.178;11.566;2024-03-02T01:43:32;7.2;;;6.0;;
26824;SDS011;14402;48.178;11.566;2024-03-02T01:44:03;7.4;;;5.7;;
26824;SDS011;14402;48.178;11.566;2024-03-02T01:44:33;7.4;;;5.7;;
26824;SDS011;14402;48.178;11.566;2024-03-02T01:45:03;7.4;;;5.7;;
26824;SDS011;14402;48.178;11.566;2024-03-02T01:45:33;6.9;;;5.8;;
26824;SDS011;14402;48.178;11.566;2024-03-02T01:46:03;6.4;;;5.8;;
26824;SDS011;14402;48.178;11.566;2024-03-02T01:46:33;6.4;;;5.8;;
26824;SDS011;14402;48.178;11.566;2024-03-02T01:47:03;6.4;;;5.8;;
26824;SDS011;14402;48.178;11.566;2024-03-02T01:47:33;6.4;;;5.8;;
26824;SDS011;14402;48.178;11.566;2024-03-02T01:48:03;6.3;;;5.7;;
26824;SDS011;14402;48.178;11.566;2024-03-02T01:48:33;6.3;;;5.7;;
26824;SDS011;14402;48.178;11.566;2024-03-02T01:49:03;6.3;;;5.7;;
26824;SDS011;14402;48.178;11.566;2024-03-02T01:49:33;6.3;;;5.7;;
26824;SDS011;14402;48.178;11.566;2024-03-02T01:50:03;6.3;;;5.7;;
26824;SDS011;14402;48.178;11.566;2024-03-02T01:50:34;6.3;;;5.7;;
26824;SDS011;14402;48.178;11.566;2024-03-02T01:51:03;6.3;;;5.7;;
26824;SDS011;14402;48.178;11.566;2024-03-02T01:51:33;6.4;;;5.8;;
26824;SDS011;14402;48.178;11.566;2024-03-02T01:52:03;6.5;;;5.9;;
26824;SDS011;14402;48.178;11.566;2024-03-02T01:52:34;6.5;;;5.9;;
26824;SDS011;14402;48.178;11.566;2024-03-02T01:53:04;6.5;;;5.9;;
26824;SDS011;14402;48.178;11.566;2024-03-02T01:53:34;6.3;;;5.8;;
26824;SDS011;14402;48.178;11.566;2024-03-02T01:54:04;6.2;;;5.6;;
26824;SDS011;14402;48.178;11.566;2024-03-02T01:54:34;6.2;;;5.6;;
26824;SDS011;14402;48.178;11.566;2024-03-02T01:55:04;6.2;;;5.6;;
26824;SDS011;14402;48.178;11.566;2024-03-02T01:55:34;6.4;;;5.8;;
26824;SDS011;14402;48.178;11.566;2024-03-02T01:56:04;6.7;;;6.0;;
26824;SDS011;14402;48.178;11.566;2024-03-02T01:56:34;6.7;;;6.0;;
26824;SDS011;14402;48.178;11.566;2024-03-02T01:57:04;6.7;;;6.0;;
26824;SDS011;14402;48.178;11.566;2024-03-02T01:57:34;6.7;;;5.9;;
26824;SDS011;14402;48.178;11.566;2024-03-02T01:58:05;6.7;;;5.8;;
26824;SDS011;14402;48.178;11.566;2024-03-02T01:58:35;6.7;;;5.8;;
26824;SDS011;14402;48.178;11.566;2024-03-02T01:59:05;6.7;;;5.8;;
26824;SDS011;14402;48.178;11.566;2024-03-02T01:59:35;6.6;;;5.9;;
26824;SDS011;14402;48.178;11.566;2024-03-02T02:00:05;6.6;;;6.0;;
26824;SDS011;14402;48.178;11.566;2024-03-02T02:00:35;6.6;;;6.0;;
26824;SDS011;14402;48.178;11.566;2024-03-02T02:01:05;6.6;;;6.0;;
26824;SDS011;14402;48.178;11.566;2024-03-02T02:01:35;6.4;;;5.8;;
26824;SDS011;14402;48.178;11.566;2024-03-02T02:02:05;6.3;;;5.6;;
26824;SDS011;14402;48.178;11.566;2024-03-02T02:02:35;6.3;;;5.6;;
26824;SDS011;14402;48.178;11.566;2024-03-02T02:03:05;6.3;;;5.6;;
26824;SDS011;14402;48.178;11.566;2024-03-02T02:03:35;6.4;;;5.8;;
26824;SDS011;14402;48.178;11.566;2024-03-02T02:04:05;6.6;;;6.0;;
26824;SDS011;14402;48.178;11.566;2024-03-02T02:04:36;6.6;;;6.0;;
26824;SDS011;14402;48.178;11.566;2024-03-02T02:05:06;6.6;;;6.0;;
26824;SDS011;14402;48.178;11.566;2024-03-02T02:05:36;6.4;;;5.8;;
26824;SDS011;14402;48.178;11.566;2024-03-02T02:06:06;6.3;;;5.7;;
26824;SDS011;14402;48.178;11.566;2024-03-02T02:06:36;6.3;;;5.7;;
26824;SDS011;14402;48.178;11.566;2024-03-02T02:07:06;6.3;;;5.7;;
26824;SDS011;14402;48.178;11.566;2024-03-02T02:07:36;6.1;;;5.5;;
26824;SDS011;14402;48.178;11.566;2024-03-02T02:08:06;5.9;;;5.3;;
26824;SDS011;14402;48.178;11.566;2024-03-02T02:08:36;5.9;;;5.3;;
26824;SDS011;14402;48.178;11.566;2024-03-02T02:09:06;5.9;;;5.3;;
26824;SDS011;14402;48.178;11.566;2024-03-02T02:09:36;6.2;;;5.6;;
26824;SDS011;14402;48.178;11.566;2024-03-02T02:10:06;6.4;;;5.8;;
26824;SDS011;14402;48.178;11.566;2024-03-02T02:10:36;6.4;;;5.8;;
26824;SDS011;14402;48.178;11.566;2024-03-02T02:11:06;6.4;;;5.8;;
26824;SDS011;14402;48.178;11.566;2024-03-02T02:11:36;6.4;;;5.8;;
26824;SDS011;14402;48.178;11.566;2024-03-02T02:12:06;6.3;;;5.7;;
26824;SDS011;14402;48.178;11.566;2024-03-02T02:12:36;6.3;;;5.7;;
26824;SDS011;14402;48.178;11.566;2024-03-02T02:13:06;6.3;;;5.7;;
26824;SDS011;14402;48.178;11.566;2024-03-02T02:13:36;6.2;;;5.6;;
26824;SDS011;14402;48.178;11.566;2024-03-02T02:14:07;6.0;;;5.5;;
26824;SDS011;14402;48.178;11.566;2024-03-02T02:14:37;6.0;;;5.5;;
26824;SDS011;14402;48.178;11.566;2024-03-02T02:15:21;6.0;;;5.5;;
26824;SDS011;14402;48.178;11.566;2024-03-02T02:15:37;5.9;;;5.4;;
26824;SDS011;14402;48.178;11.566;2024-03-02T02:16:07;5.8;;;5.3;;
26824;SDS011;14402;48.178;11.566;2024-03-02T02:16:37;5.8;;;5.3;;
26824;SDS011;14402;48.178;11.566;2024-03-02T02:17:08;5.8;;;5.3;;
26824;SDS011;14402;48.178;11.566;2024-03-02T02:17:37;6.0;;;5.4;;
26824;SDS011;14402;48.178;11.566;2024-03-02T02:18:07;6.2;;;5.6;;
26824;SDS011;14402;48.178;11.566;2024-03-02T02:18:37;6.2;;;5.6;;
26824;SDS011;14402;48.178;11.566;2024-03-02T02:19:07;6.2;;;5.6;;
26824;SDS011;14402;48.178;11.566;2024-03-02T02:19:37;6.1;;;5.6;;
26824;SDS011;14402;48.178;11.566;2024-03-02T02:20:07;6.0;;;5.5;;
26824;SDS011;14402;48.178;11.566;2024-03-02T02:20:37;6.0;;;5.5;;
26824;SDS011;14402;48.178;11.566;2024-03-02T02:21:07;6.0;;;5.5;;
26824;SDS011;14402;48.178;11.566;2024-03-02T02:21:37;6.2;;;5.7;;
26824;SDS011;14402;48.178;11.566;2024-03-02T02:22:07;6.3;;;5.8;;
26824;SDS011;14402;48.178;11.566;2024-03-02T02:22:37;6.3;;;5.8;;
26824;SDS011;14402;48.178;11.566;2024-03-02T02:23:08;6.3;;;5.8;;
26824;SDS011;14402;48.178;11.566;2024-03-02T02:23:38;6.5;;;5.4;;
26824;SDS011;14402;48.178;11.566;2024-03-02T02:24:08;6.7;;;5.1;;
26824;SDS011;14402;48.178;11.566;2024-03-02T02:24:39;6.7;;;5.1;;
26824;SDS011;14402;48.178;11.566;2024-03-02T02:25:08;6.7;;;5.1;;
26824;SDS011;14402;48.178;11.566;2024-03-02T02:25:38;6.2;;;5.1;;
26824;SDS011;14402;48.178;11.566;2024-03-02T02:26:08;5.8;;;5.2;;
26824;SDS011;14402;48.178;11.566;2024-03-02T02:26:38;5.8;;;5.2;;
26824;SDS011;14402;48.178;11.566;2024-03-02T02:27:08;5.8;;;5.2;;
26824;SDS011;14402;48.178;11.566;2024-03-02T02:27:38;5.8;;;5.2;;
26824;SDS011;14402;48.178;11.566;2024-03-02T02:28:08;5.7;;;5.2;;
26824;SDS011;14402;48.178;11.566;2024-03-02T02:28:38;5.7;;;5.2;;
26824;SDS011;14402;48.178;11.566;2024-03-02T02:29:08;5.7;;;5.2;;
26824;SDS011;14402;48.178;11.566;2024-03-02T02:29:38;5.8;;;5.3;;
26824;SDS011;14402;48.178;11.566;2024-03-02T02:30:09;5.9;;;5.4;;
26824;SDS011;14402;48.178;11.566;2024-03-02T02:30:38;5.9;;;5.4;;
26824;SDS011;14402;48.178;11.566;2024-03-02T02:31:08;5.9;;;5.4;;
26824;SDS011;14402;48.178;11.566;2024-03-02T02:31:39;5.9;;;5.4;;
26824;SDS011;14402;48.178;11.566;2024-03-02T02:32:09;5.8;;;5.3;;
26824;SDS011;14402;48.178;11.566;2024-03-02T02:32:39;5.8;;;5.3;;
26824;SDS011;14402;48.178;11.566;2024-03-02T02:33:09;5.8;;;5.3;;
26824;SDS011;14402;48.178;11.566;2024-03-02T02:33:39;6.0;;;5.4;;
26824;SDS011;14402;48.178;11.566;2024-03-02T02:34:09;6.2;;;5.6;;
26824;SDS011;14402;48.178;11.566;2024-03-02T02:34:39;6.2;;;5.6;;
26824;SDS011;14402;48.178;11.566;2024-03-02T02:35:09;6.2;;;5.6;;
26824;SDS011;14402;48.178;11.566;2024-03-02T02:35:39;5.9;;;5.4;;
26824;SDS011;14402;48.178;11.566;2024-03-02T02:36:09;5.7;;;5.2;;
26824;SDS011;14402;48.178;11.566;2024-03-02T02:36:39;5.7;;;5.2;;
26824;SDS011;14402;48.178;11.566;2024-03-02T02:37:09;5.7;;;5.2;;
26824;SDS011;14402;48.178;11.566;2024-03-02T02:37:39;6.1;;;5.1;;
26824;SDS011;14402;48.178;11.566;2024-03-02T02:38:09;6.5;;;4.9;;
26824;SDS011;14402;48.178;11.566;2024-03-02T02:38:40;6.5;;;4.9;;
26824;SDS011;14402;48.178;11.566;2024-03-02T02:39:10;6.5;;;4.9;;
26824;SDS011;14402;48.178;11.566;2024-03-02T02:39:39;6.1;;;5.1;;
26824;SDS011;14402;48.178;11.566;2024-03-02T02:40:10;5.7;;;5.2;;
26824;SDS011;14402;48.178;11.566;2024-03-02T02:40:39;5.7;;;5.2;;
26824;SDS011;14402;48.178;11.566;2024-03-02T02:41:09;5.7;;;5.2;;
26824;SDS011;14402;48.178;11.566;2024-03-02T02:41:39;5.8;;;5.3;;
26824;SDS011;14402;48.178;11.566;2024-03-02T02:42:10;6.0;;;5.5;;
26824;SDS011;14402;48.178;11.566;2024-03-02T02:42:40;6.0;;;5.5;;
26824;SDS011;14402;48.178;11.566;2024-03-02T02:43:10;6.0;;;5.5;;
26824;SDS011;14402;48.178;11.566;2024-03-02T02:43:40;5.7;;;5.2;;
26824;SDS011;14402;48.178;11.566;2024-03-02T02:44:10;5.3;;;4.8;;
26824;SDS011;14402;48.178;11.566;2024-03-02T02:44:40;5.3;;;4.8;;
26824;SDS011;14402;48.178;11.566;2024-03-02T02:45:10;5.3;;;4.8;;
26824;SDS011;14402;48.178;11.566;2024-03-02T02:45:40;5.3;;;4.8;;
26824;SDS011;14402;48.178;11.566;2024-03-02T02:46:10;5.3;;;4.8;;
26824;SDS011;14402;48.178;11.566;2024-03-02T02:46:40;5.3;;;4.8;;
26824;SDS011;14402;48.178;11.566;2024-03-02T02:47:10;5.3;;;4.8;;
26824;SDS011;14402;48.178;11.566;2024-03-02T02:47:40;5.2;;;4.8;;
26824;SDS011;14402;48.178;11.566;2024-03-02T02:48:10;5.2;;;4.8;;
26824;SDS011;14402;48.178;11.566;2024-03-02T02:48:40;5.2;;;4.8;;
26824;SDS011;14402;48.178;11.566;2024-03-02T02:49:10;5.2;;;4.8;;
26824;SDS011;14402;48.178;11.566;2024-03-02T02:49:40;5.3;;;4.9;;
26824;SDS011;14402;48.178;11.566;2024-03-02T02:50:11;5.4;;;4.9;;
26824;SDS011;14402;48.178;11.566;2024-03-02T02:50:41;5.4;;;4.9;;
26824;SDS011;14402;48.178;11.566;2024-03-02T02:51:11;5.4;;;4.9;;
26824;SDS011;14402;48.178;11.566;2024-03-02T02:51:41;6.0;;;5.3;;
26824;SDS011;14402;48.178;11.566;2024-03-02T02:52:11;6.6;;;5.7;;
26824;SDS011;14402;48.178;11.566;2024-03-02T02:52:41;6.6;;;5.7;;
26824;SDS011;14402;48.178;11.566;2024-03-02T02:53:11;6.6;;;5.7;;
26824;SDS011;14402;48.178;11.566;2024-03-02T02:53:41;6.0;;;5.3;;
26824;SDS011;14402;48.178;11.566;2024-03-02T02:54:11;5.4;;;4.9;;
26824;SDS011;14402;48.178;11.566;2024-03-02T02:54:41;5.4;;;4.9;;
26824;SDS011;14402;48.178;11.566;2024-03-02T02:55:12;5.4;;;4.9;;
26824;SDS011;14402;48.178;11.566;2024-03-02T02:55:41;5.5;;;5.0;;
26824;SDS011;14402;48.178;11.566;2024-03-02T02:56:11;5.6;;;5.1;;
26824;SDS011;14402;48.178;11.566;2024-03-02T02:56:41;5.6;;;5.1;;
26824;SDS011;14402;48.178;11.566;2024-03-02T02:57:12;5.6;;;5.1;;
26824;SDS011;14402;48.178;11.566;2024-03-02T02:57:42;5.6;;;5.1;;
26824;SDS011;14402;48.178;11.566;2024-03-02T02:58:12;5.7;;;5.2;;
26824;SDS011;14402;48.178;11.566;2024-03-02T02:58:42;5.7;;;5.2;;
26824;SDS011;14402;48.178;11.566;2024-03-02T02:59:12;5.7;;;5.2;;
26824;SDS011;14402;48.178;11.566;2024-03-02T02:59:42;5.7;;;5.2;;
26824;SDS011;14402;48.178;11.566;2024-03-02T03:00:12;5.7;;;5.2;;
26824;SDS011;14402;48.178;11.566;2024-03-02T03:00:42;5.7;;;5.2;;
26824;SDS011;14402;48.178;11.566;2024-03-02T03:01:12;5.7;;;5.2;;
26824;SDS011;14402;48.178;11.566;2024-03-02T03:01:42;5.6;;;5.1;;
26824;SDS011;14402;48.178;11.566;2024-03-02T03:02:12;5.5;;;5.0;;
26824;SDS011;14402;48.178;11.566;2024-03-02T03:02:43;5.5;;;5.0;;
26824;SDS011;14402;48.178;11.566;2024-03-02T03:03:12;5.5;;;5.0;;
26824;SDS011;14402;48.178;11.566;2024-03-02T03:03:42;5.9;;;5.3;;